Hovedside
METAR-TAF:

METAR-TAF

Lufthavner :

Pohnpei, Mikronesia

breddegrad: 06-59N, lengdegrad: 158-12E, høyde over havet: 2 m

Gjeldene værobservasjon

Denne rapporten ble laget for 1 time og 5 minutter siden, klokken 00:50 UTC
Vind 6 kt fra Sør-sørøst
Temperatur 29°C
Luftfuktighet 84%
Trykk 1007 hPa
Sikt: 24.1 km
Brutte skyer i en høyde av 1800 ft
Overskyet i en høyde av 13000 ft

METAR: PTPN 290050Z 15006KT 15SM BKN018 OVC130 29/26 A2975

Tid: 12:55 (01:55 UTC)

Varsel

Denne rapporten ble laget for 2 timer og 20 minutter siden, klokken 23:35 UTC
Varsel gyldig fra 29. klokken 00 UTC til 29. klokken 24 UTC
Vind 10 kt fra Øst-sørøst
Sikt: 10 km
Spredte skyer i en høyde av 1800 ft
Brutte skyer i en høyde av 14000 ft
regnbyger i nærheten
Midlertidig
fra 29. klokken 00 UTC til 29. klokken 04 UTC
Brutte skyer i en høyde av 1600 ft
Overskyet i en høyde av 10000 ft
lette regnbyger

TAF: PTPN 282335Z 2900/2924 12010KT P6SM VCSH SCT018 BKN140 TEMPO 2900/2904 -SHRA BKN016 OVC100

Værobservasjoner og værvarsel for over 4000 flyplasser (METAR- og TAF-rapporter).

Tilgjengelige stasjoner er representert av de røde og gule prikkene på kartet.

Hold musepekeren over prikken for å se navnet på stasjonen.

Klikk så for å se værobservasjoner og -varsler.

For å forandre kartet kan du klikke på den grønne knappen med svart kryss for å zoome inn, på den grønne knappen med strek for å zoome ut, eller på de grønne pilene for å se tilstøtende kart.


METAR-TAF: